Time;durP1;ratioP1;P1;durP2;ratioP2;P2;SDS_P1;SDS_P2;PMS_P1;PMS_P2;Temp;Humidity;BMP_temperature;BMP_pressure;BME280_temperature;BME280_humidity;BME280_pressure;Samples;Min_cycle;Max_cycle;Signal;HPM_P1;HPM_P2
2023/12/16 00:01:22;;;;;;;;;;;9.40;99.90;;;;;;7337157;19;109401;-60
2023/12/16 00:03:49;;;;;;;;;;;9.40;99.90;;;;;;7342442;19;109176;-60
2023/12/16 00:06:20;;;;;;;;;;;9.30;99.90;;;;;;7336186;19;108893;-61
2023/12/16 00:08:47;;;;;;;;;;;9.40;99.90;;;;;;7335792;19;109460;-61
2023/12/16 00:11:15;;;;;;;;;;;9.30;99.90;;;;;;7336703;19;109175;-60
2023/12/16 00:13:42;;;;;;;;;;;9.40;99.90;;;;;;7333202;19;109002;-62
2023/12/16 00:16:10;;;;;;;;;;;9.40;99.90;;;;;;7336403;19;110463;-60
2023/12/16 00:18:38;;;;;;;;;;;9.40;99.90;;;;;;7339512;19;110095;-60
2023/12/16 00:21:07;;;;;;;;;;;9.40;99.90;;;;;;7339080;19;108304;-61
2023/12/16 00:23:34;;;;;;;;;;;9.40;99.90;;;;;;7343538;19;108584;-60
2023/12/16 00:26:01;;;;;;;;;;;9.30;99.90;;;;;;7337401;19;108842;-61
2023/12/16 00:28:28;;;;;;;;;;;9.30;99.90;;;;;;7337903;19;109579;-61
2023/12/16 00:30:57;;;;;;;;;;;9.30;99.90;;;;;;7336917;19;110536;-61
2023/12/16 00:33:24;;;;;;;;;;;9.30;99.90;;;;;;7337747;19;108787;-61
2023/12/16 00:35:51;;;;;;;;;;;9.30;99.90;;;;;;7337750;19;108880;-61
2023/12/16 00:38:19;;;;;;;;;;;9.30;99.90;;;;;;7339836;19;109581;-61
2023/12/16 00:40:46;;;;;;;;;;;9.30;99.90;;;;;;7338346;19;108885;-61
2023/12/16 00:43:13;;;;;;;;;;;9.30;99.90;;;;;;7335126;19;109130;-61
2023/12/16 00:45:41;;;;;;;;;;;9.30;99.90;;;;;;7340423;19;109406;-61
2023/12/16 00:48:08;;;;;;;;;;;9.30;99.90;;;;;;7337082;19;109210;-60
2023/12/16 00:50:38;;;;;;;;;;;9.30;99.90;;;;;;7335244;19;109266;-60
2023/12/16 00:53:05;;;;;;;;;;;9.30;99.90;;;;;;7337176;19;110425;-60
2023/12/16 00:55:32;;;;;;;;;;;9.30;99.90;;;;;;7335579;19;109995;-60
2023/12/16 00:57:59;;;;;;;;;;;9.30;99.90;;;;;;7336979;19;109650;-60
2023/12/16 01:00:27;;;;;;;;;;;9.30;99.90;;;;;;7334515;19;109447;-60
2023/12/16 01:02:54;;;;;;;;;;;9.30;99.90;;;;;;7335054;19;108974;-60
2023/12/16 01:05:21;;;;;;;;;;;9.30;99.90;;;;;;7330980;19;111688;-61
2023/12/16 01:07:48;;;;;;;;;;;9.30;99.90;;;;;;7341915;19;108546;-62
2023/12/16 01:10:16;;;;;;;;;;;9.30;99.90;;;;;;7334744;19;109456;-61
2023/12/16 01:12:43;;;;;;;;;;;9.30;99.90;;;;;;7332456;19;109315;-62
2023/12/16 01:15:10;;;;;;;;;;;9.30;99.90;;;;;;7336749;19;108685;-63
2023/12/16 01:17:37;;;;;;;;;;;9.30;99.90;;;;;;7335674;19;110604;-62
2023/12/16 01:20:06;;;;;;;;;;;9.30;99.90;;;;;;7335835;19;110176;-62
2023/12/16 01:22:33;;;;;;;;;;;9.30;99.90;;;;;;7335002;19;108720;-64
2023/12/16 01:27:33;;;;;;;;;;;9.30;99.90;;;;;;7333831;19;109169;-61
2023/12/16 01:30:00;;;;;;;;;;;9.30;99.90;;;;;;7343854;19;108766;-60
2023/12/16 01:32:28;;;;;;;;;;;9.30;99.90;;;;;;7332896;19;108447;-61
2023/12/16 01:34:56;;;;;;;;;;;9.30;99.90;;;;;;7332983;19;109615;-61
2023/12/16 01:37:26;;;;;;;;;;;9.30;99.90;;;;;;7335574;19;109209;-63
2023/12/16 01:39:53;;;;;;;;;;;9.30;99.90;;;;;;7337216;19;108856;-61
2023/12/16 01:42:20;;;;;;;;;;;9.30;99.90;;;;;;7337225;19;108801;-61
2023/12/16 01:44:47;;;;;;;;;;;9.30;99.90;;;;;;7333291;19;109719;-61
2023/12/16 01:47:15;;;;;;;;;;;9.30;99.90;;;;;;7334608;19;110724;-61
2023/12/16 01:49:44;;;;;;;;;;;9.30;99.90;;;;;;7334665;19;108822;-60
2023/12/16 01:52:11;;;;;;;;;;;9.30;99.90;;;;;;7340461;19;109083;-61
2023/12/16 01:54:38;;;;;;;;;;;9.30;99.90;;;;;;7336423;19;109180;-61
2023/12/16 01:57:05;;;;;;;;;;;9.30;99.90;;;;;;7333213;19;111291;-60
2023/12/16 01:59:33;;;;;;;;;;;9.30;99.90;;;;;;7332683;19;115139;-62
2023/12/16 02:02:00;;;;;;;;;;;9.30;99.90;;;;;;7334411;19;108948;-62
2023/12/16 02:04:27;;;;;;;;;;;9.30;99.90;;;;;;7335350;19;109274;-61
2023/12/16 02:06:56;;;;;;;;;;;9.30;99.90;;;;;;7336366;19;108682;-61
2023/12/16 02:09:23;;;;;;;;;;;9.30;99.90;;;;;;7336596;19;109817;-60
2023/12/16 02:11:52;;;;;;;;;;;9.30;99.90;;;;;;7336549;19;110103;-60
2023/12/16 02:14:19;;;;;;;;;;;9.20;99.90;;;;;;7336669;19;109152;-61
2023/12/16 02:16:47;;;;;;;;;;;9.20;99.90;;;;;;7333244;19;113809;-61
2023/12/16 02:19:20;;;;;;;;;;;9.20;99.90;;;;;;7335643;19;108621;-60
2023/12/16 02:21:47;;;;;;;;;;;9.20;99.90;;;;;;7333118;19;109229;-60
2023/12/16 02:24:14;;;;;;;;;;;9.20;99.90;;;;;;7330640;19;109639;-60
2023/12/16 02:26:41;;;;;;;;;;;9.20;99.90;;;;;;7332693;19;110591;-60
2023/12/16 02:29:08;;;;;;;;;;;9.10;99.90;;;;;;7331511;19;109022;-61
2023/12/16 02:31:36;;;;;;;;;;;9.10;99.90;;;;;;7333032;19;109169;-61
2023/12/16 02:34:03;;;;;;;;;;;9.10;99.90;;;;;;7336330;19;109561;-61
2023/12/16 02:36:30;;;;;;;;;;;9.10;99.90;;;;;;7332452;19;109698;-61
2023/12/16 02:38:57;;;;;;;;;;;9.00;99.90;;;;;;7332935;19;110415;-61
2023/12/16 02:41:24;;;;;;;;;;;9.00;99.90;;;;;;7333722;19;109386;-61
2023/12/16 02:43:51;;;;;;;;;;;9.00;99.90;;;;;;7331154;19;109816;-61
2023/12/16 02:46:19;;;;;;;;;;;9.00;99.90;;;;;;7336291;19;109069;-61
2023/12/16 02:48:46;;;;;;;;;;;8.90;99.90;;;;;;7331567;19;110084;-61
2023/12/16 02:51:19;;;;;;;;;;;8.90;99.90;;;;;;7331811;19;109981;-61
2023/12/16 02:53:47;;;;;;;;;;;8.90;99.90;;;;;;7332772;19;114734;-61
2023/12/16 02:56:14;;;;;;;;;;;8.90;99.90;;;;;;7338323;19;109025;-61
2023/12/16 02:58:41;;;;;;;;;;;8.80;99.90;;;;;;7332506;19;108776;-61
2023/12/16 03:01:09;;;;;;;;;;;8.80;99.90;;;;;;7334024;19;108553;-62
2023/12/16 03:03:37;;;;;;;;;;;8.80;99.90;;;;;;7332269;19;109494;-62
2023/12/16 03:06:07;;;;;;;;;;;8.80;99.90;;;;;;7332859;19;109612;-62
2023/12/16 03:08:35;;;;;;;;;;;8.80;99.90;;;;;;7347604;19;108866;-88
2023/12/16 03:11:03;;;;;;;;;;;8.70;99.90;;;;;;7359860;19;113122;-88
2023/12/16 03:13:30;;;;;;;;;;;8.80;99.90;;;;;;7360534;19;108269;-87
2023/12/16 03:15:58;;;;;;;;;;;8.70;99.90;;;;;;7359117;19;112157;-88
2023/12/16 03:18:25;;;;;;;;;;;8.70;99.90;;;;;;7366317;19;113365;-87
2023/12/16 03:20:53;;;;;;;;;;;8.70;99.90;;;;;;7362847;19;108865;-88
2023/12/16 03:23:20;;;;;;;;;;;8.70;99.90;;;;;;7359241;19;108595;-88
2023/12/16 03:25:47;;;;;;;;;;;8.70;99.90;;;;;;7372323;19;108395;-88
2023/12/16 03:28:14;;;;;;;;;;;8.70;99.90;;;;;;7372954;19;110338;-87
2023/12/16 03:30:41;;;;;;;;;;;8.70;99.90;;;;;;7369233;19;109734;-87
2023/12/16 03:33:09;;;;;;;;;;;8.70;99.90;;;;;;7376802;19;108070;-88
2023/12/16 03:35:36;;;;;;;;;;;8.70;99.90;;;;;;7371101;19;109654;-87
2023/12/16 03:38:03;;;;;;;;;;;8.70;99.90;;;;;;7373558;19;109077;-87
2023/12/16 03:40:30;;;;;;;;;;;8.70;99.90;;;;;;7375077;19;109953;-88
2023/12/16 03:42:58;;;;;;;;;;;8.70;99.90;;;;;;7372682;19;109703;-88
2023/12/16 03:45:25;;;;;;;;;;;8.70;99.90;;;;;;7370292;19;110143;-87
2023/12/16 03:47:54;;;;;;;;;;;8.70;99.90;;;;;;7372514;19;108628;-88
2023/12/16 03:50:22;;;;;;;;;;;8.70;99.90;;;;;;7373633;19;112545;-88
2023/12/16 03:52:49;;;;;;;;;;;8.70;99.90;;;;;;7373402;19;108400;-86
2023/12/16 03:55:16;;;;;;;;;;;8.70;99.90;;;;;;7371215;19;112936;-89
2023/12/16 03:57:43;;;;;;;;;;;8.70;99.90;;;;;;7372961;19;111626;-89
2023/12/16 04:00:11;;;;;;;;;;;8.70;99.90;;;;;;7370774;19;108848;-89
2023/12/16 04:02:38;;;;;;;;;;;8.70;99.90;;;;;;7382825;19;108005;-88
2023/12/16 04:05:06;;;;;;;;;;;8.70;99.90;;;;;;7374994;19;110208;-89
2023/12/16 04:07:33;;;;;;;;;;;8.70;99.90;;;;;;7371453;19;108642;-88
2023/12/16 04:10:02;;;;;;;;;;;8.70;99.90;;;;;;7373934;19;108231;-88
2023/12/16 04:26:35;;;;;;;;;;;8.60;99.90;;;;;;7333343;19;110089;-61
2023/12/16 04:29:02;;;;;;;;;;;8.60;99.90;;;;;;7336748;19;109052;-61
2023/12/16 04:31:29;;;;;;;;;;;8.60;99.90;;;;;;7337667;19;109143;-61
2023/12/16 04:33:56;;;;;;;;;;;8.60;99.90;;;;;;7337018;19;109403;-61
2023/12/16 04:36:23;;;;;;;;;;;8.50;99.90;;;;;;7338061;19;109116;-62
2023/12/16 04:38:50;;;;;;;;;;;8.50;99.90;;;;;;7333276;19;109308;-62
2023/12/16 04:41:18;;;;;;;;;;;8.50;99.90;;;;;;7338133;19;110102;-62
2023/12/16 04:43:45;;;;;;;;;;;8.40;99.90;;;;;;7337360;19;108370;-65
2023/12/16 04:46:12;;;;;;;;;;;8.40;99.90;;;;;;7342352;19;110027;-61
2023/12/16 04:48:39;;;;;;;;;;;8.40;99.90;;;;;;7332427;19;110610;-60
2023/12/16 04:51:06;;;;;;;;;;;8.40;99.90;;;;;;7337590;19;110068;-62
2023/12/16 04:53:34;;;;;;;;;;;8.30;99.90;;;;;;7336416;19;110551;-60
2023/12/16 04:56:01;;;;;;;;;;;8.30;99.90;;;;;;7339429;19;108720;-60
2023/12/16 04:58:29;;;;;;;;;;;8.30;99.90;;;;;;7334235;19;110238;-60
2023/12/16 05:00:57;;;;;;;;;;;8.30;99.90;;;;;;7337880;19;109309;-60
2023/12/16 05:03:24;;;;;;;;;;;8.20;99.90;;;;;;7336789;19;108728;-60
2023/12/16 05:05:52;;;;;;;;;;;8.20;99.90;;;;;;7335793;19;108982;-60
2023/12/16 05:08:19;;;;;;;;;;;8.20;99.90;;;;;;7341705;19;109001;-61
2023/12/16 05:10:49;;;;;;;;;;;8.20;99.90;;;;;;7338120;19;109998;-60
2023/12/16 05:13:16;;;;;;;;;;;8.20;99.90;;;;;;7329192;19;109704;-60
2023/12/16 05:15:43;;;;;;;;;;;8.10;99.90;;;;;;7335688;19;108630;-61
2023/12/16 05:18:10;;;;;;;;;;;8.10;99.90;;;;;;7333734;19;109492;-60
2023/12/16 05:20:38;;;;;;;;;;;8.10;99.90;;;;;;7334929;19;108991;-60
2023/12/16 05:23:05;;;;;;;;;;;8.10;99.90;;;;;;7335455;19;108950;-60
2023/12/16 05:25:32;;;;;;;;;;;8.00;99.90;;;;;;7335385;19;109589;-60
2023/12/16 05:27:59;;;;;;;;;;;8.00;99.90;;;;;;7335714;19;108858;-60
2023/12/16 05:30:26;;;;;;;;;;;8.00;99.90;;;;;;7338945;19;110140;-60
2023/12/16 05:32:54;;;;;;;;;;;8.00;99.90;;;;;;7338356;19;110515;-60
2023/12/16 05:35:21;;;;;;;;;;;8.00;99.90;;;;;;7334539;19;109236;-61
2023/12/16 05:37:48;;;;;;;;;;;7.90;99.90;;;;;;7336541;19;110518;-60
2023/12/16 05:40:15;;;;;;;;;;;7.90;99.90;;;;;;7334911;19;108799;-60
2023/12/16 05:45:19;;;;;;;;;;;7.90;99.90;;;;;;7345561;19;108560;-90
2023/12/16 05:47:46;;;;;;;;;;;7.90;99.90;;;;;;7343038;19;108970;-90
2023/12/16 05:50:13;;;;;;;;;;;7.80;99.90;;;;;;7340151;19;109652;-89
2023/12/16 05:52:40;;;;;;;;;;;7.80;99.90;;;;;;7344582;19;114381;-90
2023/12/16 05:55:07;;;;;;;;;;;7.80;99.90;;;;;;7337646;19;109215;-89
2023/12/16 05:57:35;;;;;;;;;;;7.70;99.90;;;;;;7337873;19;113706;-89
2023/12/16 06:00:02;;;;;;;;;;;7.70;99.90;;;;;;7341898;19;110281;-89
2023/12/16 06:02:30;;;;;;;;;;;7.70;99.90;;;;;;7340634;19;108331;-89
2023/12/16 06:04:57;;;;;;;;;;;7.70;99.90;;;;;;7334348;19;110402;-89
2023/12/16 06:07:24;;;;;;;;;;;7.70;99.90;;;;;;7337204;19;108956;-89
2023/12/16 06:09:51;;;;;;;;;;;7.70;99.90;;;;;;7336581;19;109243;-89
2023/12/16 06:12:18;;;;;;;;;;;7.60;99.90;;;;;;7340241;19;108837;-89
2023/12/16 06:14:46;;;;;;;;;;;7.60;99.90;;;;;;7344931;19;109440;-89
2023/12/16 06:17:13;;;;;;;;;;;7.60;99.90;;;;;;7337228;19;110483;-89
2023/12/16 06:19:41;;;;;;;;;;;7.60;99.90;;;;;;7338666;19;108749;-90
2023/12/16 06:22:08;;;;;;;;;;;7.60;99.90;;;;;;7337221;19;109223;-89
2023/12/16 06:24:35;;;;;;;;;;;7.50;99.90;;;;;;7358664;19;110743;-88
2023/12/16 06:27:02;;;;;;;;;;;7.50;99.90;;;;;;7374305;19;109911;-88
2023/12/16 06:29:30;;;;;;;;;;;7.50;99.90;;;;;;7373788;19;110113;-89
2023/12/16 06:31:57;;;;;;;;;;;7.50;99.90;;;;;;7377425;19;109378;-89
2023/12/16 06:34:24;;;;;;;;;;;7.40;99.90;;;;;;7378209;19;108276;-89
2023/12/16 06:36:52;;;;;;;;;;;7.40;99.90;;;;;;7371086;19;112381;-89
2023/12/16 06:39:19;;;;;;;;;;;7.40;99.90;;;;;;7373454;19;108856;-88
2023/12/16 06:41:46;;;;;;;;;;;7.40;99.90;;;;;;7373376;19;110712;-87
2023/12/16 06:44:13;;;;;;;;;;;7.30;99.90;;;;;;7349655;19;111943;-86
2023/12/16 06:46:40;;;;;;;;;;;7.30;99.90;;;;;;7348438;19;108398;-86
2023/12/16 06:49:07;;;;;;;;;;;7.30;99.90;;;;;;7342202;19;111523;-86
2023/12/16 06:51:34;;;;;;;;;;;7.30;99.90;;;;;;7334741;19;110769;-86
2023/12/16 06:54:01;;;;;;;;;;;7.30;99.90;;;;;;7350516;19;109607;-87
2023/12/16 06:56:28;;;;;;;;;;;7.20;99.90;;;;;;7360811;19;108556;-87
2023/12/16 06:58:56;;;;;;;;;;;7.20;99.90;;;;;;7340516;19;108445;-87
2023/12/16 07:01:23;;;;;;;;;;;7.20;99.90;;;;;;7338704;19;111483;-88
2023/12/16 07:03:50;;;;;;;;;;;7.20;99.90;;;;;;7338545;19;109117;-88
2023/12/16 07:06:19;;;;;;;;;;;7.20;99.90;;;;;;7336362;19;109112;-86
2023/12/16 07:08:46;;;;;;;;;;;7.10;99.90;;;;;;7338074;19;109387;-87
2023/12/16 07:11:17;;;;;;;;;;;7.10;99.90;;;;;;7331652;19;129211;-88
2023/12/16 07:13:44;;;;;;;;;;;7.10;99.90;;;;;;7336571;19;110949;-87
2023/12/16 07:16:14;;;;;;;;;;;7.10;99.90;;;;;;7333434;19;112445;-88
2023/12/16 07:18:41;;;;;;;;;;;7.10;99.90;;;;;;7342479;19;109598;-88
2023/12/16 07:21:09;;;;;;;;;;;7.10;99.90;;;;;;7335103;19;109542;-90
2023/12/16 07:23:36;;;;;;;;;;;7.10;99.90;;;;;;7336969;19;110228;-87
2023/12/16 07:26:03;;;;;;;;;;;7.10;99.90;;;;;;7334054;19;109328;-87
2023/12/16 07:28:30;;;;;;;;;;;7.00;99.90;;;;;;7336563;19;109712;-89
2023/12/16 07:30:58;;;;;;;;;;;7.00;99.90;;;;;;7329090;19;112297;-87
2023/12/16 07:33:25;;;;;;;;;;;7.00;99.90;;;;;;7331471;19;109017;-87
2023/12/16 07:35:53;;;;;;;;;;;7.00;99.90;;;;;;7329289;19;110722;-86
2023/12/16 07:38:21;;;;;;;;;;;7.00;99.90;;;;;;7332545;19;111414;-86
2023/12/16 07:40:49;;;;;;;;;;;7.00;99.90;;;;;;7337880;19;108406;-87
2023/12/16 07:43:16;;;;;;;;;;;7.10;99.90;;;;;;7330912;19;110422;-87
2023/12/16 07:45:43;;;;;;;;;;;7.10;99.90;;;;;;7333812;19;109224;-86
2023/12/16 07:48:10;;;;;;;;;;;7.10;99.90;;;;;;7335603;19;109926;-86
2023/12/16 07:50:37;;;;;;;;;;;7.10;99.90;;;;;;7330274;19;113182;-86
2023/12/16 07:53:05;;;;;;;;;;;7.10;99.90;;;;;;7335497;19;109107;-89
2023/12/16 07:55:32;;;;;;;;;;;7.10;99.90;;;;;;7335735;19;109759;-88
2023/12/16 07:57:59;;;;;;;;;;;7.10;99.90;;;;;;7335411;19;110679;-85
2023/12/16 08:00:27;;;;;;;;;;;7.10;99.90;;;;;;7335951;19;108982;-88
2023/12/16 08:02:54;;;;;;;;;;;7.20;99.90;;;;;;7340932;19;111691;-89
2023/12/16 08:05:21;;;;;;;;;;;7.20;99.90;;;;;;7333183;19;108912;-87
2023/12/16 08:07:50;;;;;;;;;;;7.20;99.90;;;;;;7332944;19;109735;-87
2023/12/16 08:10:18;;;;;;;;;;;7.30;99.90;;;;;;7334431;19;111088;-88
2023/12/16 08:12:45;;;;;;;;;;;7.30;99.90;;;;;;7338740;19;108584;-88
2023/12/16 08:15:12;;;;;;;;;;;7.30;99.90;;;;;;7344170;19;109648;-87
2023/12/16 08:17:40;;;;;;;;;;;7.40;99.90;;;;;;7343174;19;110586;-87
2023/12/16 08:20:08;;;;;;;;;;;7.50;99.90;;;;;;7343205;19;108510;-89
2023/12/16 08:22:35;;;;;;;;;;;7.50;99.90;;;;;;7339118;19;109376;-90
2023/12/16 08:25:03;;;;;;;;;;;7.50;99.90;;;;;;7350573;19;110241;-88
2023/12/16 08:27:30;;;;;;;;;;;7.60;99.90;;;;;;7343287;19;109123;-87
2023/12/16 08:29:57;;;;;;;;;;;7.60;99.90;;;;;;7344585;19;113265;-85
2023/12/16 08:32:24;;;;;;;;;;;7.70;99.90;;;;;;7344040;19;108955;-89
2023/12/16 08:34:52;;;;;;;;;;;7.70;99.90;;;;;;7345810;19;109147;-89
2023/12/16 08:37:19;;;;;;;;;;;7.80;99.90;;;;;;7344766;19;111905;-90
2023/12/16 08:39:46;;;;;;;;;;;7.80;99.90;;;;;;7349471;19;108695;-90
2023/12/16 08:42:14;;;;;;;;;;;7.80;99.90;;;;;;7346888;19;109215;-89
2023/12/16 08:44:41;;;;;;;;;;;7.90;99.90;;;;;;7352254;19;110446;-89
2023/12/16 08:47:08;;;;;;;;;;;7.90;99.90;;;;;;7348770;19;109209;-90
2023/12/16 08:49:35;;;;;;;;;;;8.00;99.90;;;;;;7339837;19;109992;-90
2023/12/16 08:52:03;;;;;;;;;;;8.10;99.90;;;;;;7342188;19;109079;-89
2023/12/16 08:54:30;;;;;;;;;;;8.10;99.90;;;;;;7342270;19;109527;-89
2023/12/16 08:56:57;;;;;;;;;;;8.20;99.90;;;;;;7344190;19;109933;-89
2023/12/16 08:59:24;;;;;;;;;;;8.20;99.90;;;;;;7345254;19;108783;-89
2023/12/16 09:01:51;;;;;;;;;;;8.30;99.90;;;;;;7342688;19;110849;-90
2023/12/16 09:09:49;;;;;;;;;;;8.40;99.90;;;;;;7335771;19;110107;-60
2023/12/16 09:12:17;;;;;;;;;;;8.50;99.90;;;;;;7336572;19;113187;-60
2023/12/16 09:14:44;;;;;;;;;;;8.50;99.90;;;;;;7333784;19;109290;-66
2023/12/16 09:17:11;;;;;;;;;;;8.60;99.90;;;;;;7332106;19;109998;-66
2023/12/16 09:19:38;;;;;;;;;;;8.60;99.90;;;;;;7331168;19;109419;-67
2023/12/16 09:22:05;;;;;;;;;;;8.70;99.90;;;;;;7335260;19;108750;-66
2023/12/16 09:24:35;;;;;;;;;;;8.70;99.90;;;;;;7334140;19;109327;-66
2023/12/16 09:27:02;;;;;;;;;;;8.80;99.90;;;;;;7336057;19;108549;-67
2023/12/16 09:29:29;;;;;;;;;;;8.80;99.90;;;;;;7345001;19;109301;-67
2023/12/16 09:31:56;;;;;;;;;;;8.80;99.90;;;;;;7336240;19;110976;-67
2023/12/16 09:34:24;;;;;;;;;;;8.90;99.90;;;;;;7335525;19;108874;-67
2023/12/16 09:36:51;;;;;;;;;;;9.00;99.90;;;;;;7338209;19;110610;-66
2023/12/16 09:39:19;;;;;;;;;;;9.00;99.90;;;;;;7337516;19;108347;-67
2023/12/16 09:41:46;;;;;;;;;;;9.10;99.90;;;;;;7335356;19;110520;-67
2023/12/16 09:44:13;;;;;;;;;;;9.10;99.90;;;;;;7337659;19;109108;-67
2023/12/16 09:46:41;;;;;;;;;;;9.20;99.90;;;;;;7333140;19;108654;-67
2023/12/16 09:49:08;;;;;;;;;;;9.20;99.90;;;;;;7337743;19;109082;-67
2023/12/16 09:51:36;;;;;;;;;;;9.30;99.90;;;;;;7342060;19;109177;-66
2023/12/16 09:54:03;;;;;;;;;;;9.30;99.90;;;;;;7335463;19;108555;-67
2023/12/16 09:56:30;;;;;;;;;;;9.30;99.90;;;;;;7337169;19;109770;-67
2023/12/16 09:58:58;;;;;;;;;;;9.30;99.90;;;;;;7334044;19;110040;-67
2023/12/16 10:01:25;;;;;;;;;;;9.40;99.90;;;;;;7336318;19;110313;-70
2023/12/16 10:03:58;;;;;;;;;;;9.40;99.90;;;;;;7337846;19;109314;-67
2023/12/16 10:06:26;;;;;;;;;;;9.50;99.90;;;;;;7337480;19;109295;-67
2023/12/16 10:08:53;;;;;;;;;;;9.50;99.90;;;;;;7335733;19;109863;-67
2023/12/16 10:11:20;;;;;;;;;;;9.60;99.90;;;;;;7333223;19;109149;-67
2023/12/16 10:13:54;;;;;;;;;;;9.60;99.90;;;;;;7344502;19;109102;-66
2023/12/16 10:16:22;;;;;;;;;;;9.60;99.90;;;;;;7334267;19;109124;-68
2023/12/16 10:18:50;;;;;;;;;;;9.70;99.90;;;;;;7335769;19;108436;-67
2023/12/16 10:21:21;;;;;;;;;;;9.70;99.90;;;;;;7334102;19;110065;-68
2023/12/16 10:23:52;;;;;;;;;;;9.80;99.90;;;;;;7336348;19;110148;-68
2023/12/16 10:26:19;;;;;;;;;;;9.80;99.90;;;;;;7329874;19;109326;-68
2023/12/16 10:28:47;;;;;;;;;;;9.90;99.90;;;;;;7331224;19;108928;-75
2023/12/16 10:31:15;;;;;;;;;;;9.90;99.90;;;;;;7332954;19;109419;-74
2023/12/16 10:33:43;;;;;;;;;;;9.90;99.90;;;;;;7335409;19;110300;-68
2023/12/16 10:36:10;;;;;;;;;;;10.00;99.90;;;;;;7333819;19;110495;-68
2023/12/16 10:38:37;;;;;;;;;;;10.00;99.90;;;;;;7335078;19;108597;-70
2023/12/16 10:41:05;;;;;;;;;;;10.00;99.90;;;;;;7331647;19;108920;-71
2023/12/16 10:43:32;;;;;;;;;;;10.10;99.90;;;;;;7332625;19;109124;-68
2023/12/16 10:46:03;;;;;;;;;;;10.10;99.90;;;;;;7332982;19;109009;-67
2023/12/16 10:48:35;;;;;;;;;;;10.10;99.90;;;;;;7334869;19;108592;-88
2023/12/16 10:51:04;;;;;;;;;;;10.20;99.90;;;;;;7333788;19;112865;-87
2023/12/16 10:53:34;;;;;;;;;;;10.20;99.90;;;;;;7336823;19;108432;-89
2023/12/16 10:56:02;;;;;;;;;;;10.30;99.90;;;;;;7340632;19;111704;-88
2023/12/16 10:58:30;;;;;;;;;;;10.30;99.90;;;;;;7337278;19;108517;-90
2023/12/16 11:01:05;;;;;;;;;;;10.30;99.90;;;;;;7342126;19;109332;-93
2023/12/16 11:03:36;;;;;;;;;;;10.30;99.90;;;;;;7336156;19;109379;-90
2023/12/16 11:06:07;;;;;;;;;;;10.40;99.90;;;;;;7330193;19;110092;-90
2023/12/16 11:08:35;;;;;;;;;;;10.40;99.90;;;;;;7337626;19;111748;-89
2023/12/16 11:11:03;;;;;;;;;;;10.40;99.90;;;;;;7336200;19;110603;-88
2023/12/16 11:13:30;;;;;;;;;;;10.40;99.90;;;;;;7335554;19;108523;-67
2023/12/16 11:16:02;;;;;;;;;;;10.40;99.90;;;;;;7328006;19;110558;-67
2023/12/16 11:18:30;;;;;;;;;;;10.50;99.90;;;;;;7335553;19;109088;-68
2023/12/16 11:21:04;;;;;;;;;;;10.50;99.90;;;;;;7330086;19;109292;-67
2023/12/16 11:23:32;;;;;;;;;;;10.50;99.90;;;;;;7327747;19;111813;-67
2023/12/16 11:26:00;;;;;;;;;;;10.50;99.90;;;;;;7331610;19;109127;-70
2023/12/16 11:28:28;;;;;;;;;;;10.60;99.90;;;;;;7332168;19;108841;-74
2023/12/16 11:30:58;;;;;;;;;;;10.70;99.90;;;;;;7328384;19;113091;-75
2023/12/16 11:33:45;;;;;;;;;;;10.70;99.90;;;;;;7330679;19;108350;-72
2023/12/16 11:36:12;;;;;;;;;;;10.70;99.90;;;;;;7331091;19;109373;-68
2023/12/16 11:38:47;;;;;;;;;;;10.70;99.90;;;;;;7357744;19;109335;-91
2023/12/16 11:41:33;;;;;;;;;;;10.80;99.90;;;;;;7377677;19;108201;-92
2023/12/16 11:44:01;;;;;;;;;;;10.80;99.90;;;;;;7369846;19;110395;-89
2023/12/16 11:46:39;;;;;;;;;;;10.70;99.90;;;;;;7369370;19;109375;-90
2023/12/16 11:49:10;;;;;;;;;;;10.80;99.90;;;;;;7378022;19;108708;-91
2023/12/16 11:51:39;;;;;;;;;;;10.70;99.90;;;;;;7355341;19;110256;-90
2023/12/16 11:54:07;;;;;;;;;;;10.80;99.90;;;;;;7351891;19;108336;-90
2023/12/16 11:56:34;;;;;;;;;;;10.80;99.90;;;;;;7350499;19;111682;-89
2023/12/16 11:59:02;;;;;;;;;;;10.80;99.90;;;;;;7353215;19;109688;-92
2023/12/16 12:01:35;;;;;;;;;;;10.80;99.90;;;;;;7349042;19;108366;-95
2023/12/16 12:04:07;;;;;;;;;;;10.80;99.90;;;;;;7348286;19;111238;-67
2023/12/16 12:06:36;;;;;;;;;;;10.90;99.90;;;;;;7336048;19;109633;-67
2023/12/16 12:09:04;;;;;;;;;;;10.90;99.90;;;;;;7339017;19;109967;-66
2023/12/16 12:11:31;;;;;;;;;;;10.90;99.90;;;;;;7332776;19;109933;-67
2023/12/16 12:13:58;;;;;;;;;;;10.90;99.90;;;;;;7335588;19;109395;-67
2023/12/16 12:16:29;;;;;;;;;;;10.80;99.90;;;;;;7327511;19;109856;-67
2023/12/16 12:18:56;;;;;;;;;;;10.80;99.90;;;;;;7334714;19;110260;-67
2023/12/16 12:21:25;;;;;;;;;;;10.80;99.90;;;;;;7334754;19;109982;-67
2023/12/16 12:23:52;;;;;;;;;;;10.80;99.90;;;;;;7334089;19;109511;-67
2023/12/16 12:26:21;;;;;;;;;;;10.90;99.90;;;;;;7335489;19;109573;-67
2023/12/16 12:28:54;;;;;;;;;;;10.90;99.90;;;;;;7332426;19;109452;-69
2023/12/16 12:31:27;;;;;;;;;;;10.90;99.90;;;;;;7334004;19;110009;-68
2023/12/16 12:33:55;;;;;;;;;;;10.90;99.90;;;;;;7336997;19;108480;-67
2023/12/16 12:36:23;;;;;;;;;;;11.00;99.90;;;;;;7336786;19;110015;-67
2023/12/16 12:38:54;;;;;;;;;;;11.00;99.90;;;;;;7336503;19;109597;-67
2023/12/16 12:41:21;;;;;;;;;;;11.00;99.90;;;;;;7336674;19;110500;-67
2023/12/16 12:43:49;;;;;;;;;;;11.00;99.90;;;;;;7335267;19;108376;-67
2023/12/16 12:46:19;;;;;;;;;;;11.00;99.90;;;;;;7335915;19;109959;-68
2023/12/16 12:48:52;;;;;;;;;;;11.10;99.90;;;;;;7331419;19;111287;-69
2023/12/16 12:51:23;;;;;;;;;;;11.00;99.90;;;;;;7336429;19;109175;-67
2023/12/16 12:53:58;;;;;;;;;;;11.00;99.90;;;;;;7330776;19;109947;-67
2023/12/16 12:56:28;;;;;;;;;;;11.00;99.90;;;;;;7340895;19;109810;-67
2023/12/16 12:58:57;;;;;;;;;;;11.10;99.90;;;;;;7333767;19;110353;-67
2023/12/16 13:01:24;;;;;;;;;;;11.00;99.90;;;;;;7330929;19;110671;-67
2023/12/16 13:03:51;;;;;;;;;;;11.00;99.90;;;;;;7336302;19;108607;-67
2023/12/16 13:06:19;;;;;;;;;;;11.00;99.90;;;;;;7333217;19;110292;-67
2023/12/16 13:08:46;;;;;;;;;;;11.00;99.90;;;;;;7344222;19;108932;-67
2023/12/16 13:11:13;;;;;;;;;;;11.00;99.90;;;;;;7334229;19;109193;-67
2023/12/16 13:13:40;;;;;;;;;;;11.00;99.90;;;;;;7334031;19;109322;-67
2023/12/16 13:16:09;;;;;;;;;;;11.10;99.90;;;;;;7333348;19;110372;-67
2023/12/16 13:18:42;;;;;;;;;;;11.00;99.90;;;;;;7328774;19;112446;-67
2023/12/16 13:21:10;;;;;;;;;;;11.00;99.90;;;;;;7325627;19;109757;-67
2023/12/16 13:23:37;;;;;;;;;;;11.00;99.90;;;;;;7329844;19;109562;-66
2023/12/16 13:26:10;;;;;;;;;;;11.00;99.90;;;;;;7329890;19;109573;-67
2023/12/16 13:28:40;;;;;;;;;;;11.00;99.90;;;;;;7329881;19;108936;-67
2023/12/16 13:31:07;;;;;;;;;;;11.00;99.90;;;;;;7340553;19;110721;-67
2023/12/16 13:33:35;;;;;;;;;;;11.00;99.90;;;;;;7335053;19;108613;-68
2023/12/16 13:36:03;;;;;;;;;;;11.10;99.90;;;;;;7332169;19;109754;-68
2023/12/16 13:38:50;;;;;;;;;;;11.00;99.90;;;;;;7334622;19;109788;-67
2023/12/16 13:41:17;;;;;;;;;;;11.00;99.90;;;;;;7334945;19;110260;-67
2023/12/16 13:43:47;;;;;;;;;;;11.00;99.90;;;;;;7333269;19;108413;-67
2023/12/16 13:46:14;;;;;;;;;;;11.00;99.90;;;;;;7333564;19;110279;-67
2023/12/16 13:48:42;;;;;;;;;;;11.00;99.90;;;;;;7335488;19;108848;-67
2023/12/16 13:51:09;;;;;;;;;;;11.00;99.90;;;;;;7334129;19;108714;-67
2023/12/16 13:53:36;;;;;;;;;;;11.10;99.90;;;;;;7336424;19;109271;-71
2023/12/16 13:56:04;;;;;;;;;;;11.00;99.90;;;;;;7335095;19;109450;-67
2023/12/16 13:58:31;;;;;;;;;;;11.00;99.90;;;;;;7332870;19;110131;-68
2023/12/16 14:00:58;;;;;;;;;;;11.10;99.90;;;;;;7327089;19;109549;-70
2023/12/16 14:03:26;;;;;;;;;;;11.10;99.90;;;;;;7330705;19;109314;-65
2023/12/16 14:05:53;;;;;;;;;;;11.10;99.90;;;;;;7326105;19;110518;-66
2023/12/16 14:08:21;;;;;;;;;;;11.20;99.90;;;;;;7329781;19;109382;-67
2023/12/16 14:10:48;;;;;;;;;;;11.20;99.90;;;;;;7328478;19;110285;-67
2023/12/16 14:13:15;;;;;;;;;;;11.10;99.90;;;;;;7329482;19;109199;-68
2023/12/16 14:15:42;;;;;;;;;;;11.10;99.90;;;;;;7340285;19;109239;-67
2023/12/16 14:18:09;;;;;;;;;;;11.00;99.90;;;;;;7333578;19;109544;-67
2023/12/16 14:20:37;;;;;;;;;;;10.90;99.90;;;;;;7332345;19;109972;-67
2023/12/16 14:23:04;;;;;;;;;;;11.00;99.90;;;;;;7333589;19;108721;-68
2023/12/16 14:25:33;;;;;;;;;;;11.00;99.90;;;;;;7335078;19;109271;-67
2023/12/16 14:28:01;;;;;;;;;;;11.00;99.90;;;;;;7325558;19;110616;-68
2023/12/16 14:30:29;;;;;;;;;;;11.10;99.90;;;;;;7332265;19;110976;-69
2023/12/16 14:32:56;;;;;;;;;;;11.20;99.90;;;;;;7332723;19;110227;-69
2023/12/16 14:35:23;;;;;;;;;;;11.20;99.90;;;;;;7331578;19;108804;-69
2023/12/16 14:37:51;;;;;;;;;;;11.30;99.90;;;;;;7335861;19;110393;-67
2023/12/16 14:40:20;;;;;;;;;;;11.30;99.90;;;;;;7335731;19;108967;-68
2023/12/16 14:42:47;;;;;;;;;;;11.30;99.90;;;;;;7330048;19;109416;-67